createdAt,value
2022-10-12T00:02:19.736Z,96.23
2022-10-12T00:12:19.806Z,96.53
2022-10-12T00:22:20.117Z,97.04
2022-10-12T00:32:20.255Z,96.73
2022-10-12T00:42:20.378Z,96.53
2022-10-12T00:52:20.401Z,96.63
2022-10-12T01:02:20.717Z,96.63
2022-10-12T01:12:20.753Z,96.63
2022-10-12T01:22:21.063Z,96.73
2022-10-12T01:32:21.081Z,96.83
2022-10-12T01:42:21.420Z,96.73
2022-10-12T01:52:21.462Z,96.47
2022-10-12T02:02:21.772Z,96.58
2022-10-12T02:12:21.789Z,96.27
2022-10-12T02:22:22.240Z,96.37
2022-10-12T02:32:22.277Z,96.07
2022-10-12T02:42:22.561Z,96.27
2022-10-12T02:52:22.601Z,96.37
2022-10-12T03:02:23.041Z,96.07
2022-10-12T03:12:23.123Z,96.17
2022-10-12T03:22:23.267Z,96.37
2022-10-12T03:32:23.277Z,96.58
2022-10-12T03:42:23.613Z,96.07
2022-10-12T03:52:23.653Z,96.07
2022-10-12T04:02:23.974Z,95.97
2022-10-12T04:12:24.003Z,96.17
2022-10-12T04:22:24.331Z,96.31
2022-10-12T04:32:24.388Z,96.42
2022-10-12T04:42:24.667Z,96.42
2022-10-12T04:52:24.770Z,96.31
2022-10-12T05:02:25.009Z,96.31
2022-10-12T05:12:25.048Z,96.11
2022-10-12T05:22:25.365Z,96.22
2022-10-12T05:32:25.377Z,96.11
2022-10-12T05:42:25.727Z,95.91
2022-10-12T05:52:25.745Z,95.70
2022-10-12T06:02:26.066Z,95.46
2022-10-12T06:12:26.091Z,95.66
2022-10-12T06:22:26.420Z,95.86
2022-10-12T06:32:26.441Z,95.56
2022-10-12T06:42:26.778Z,95.01
2022-10-12T06:52:26.799Z,94.80
2022-10-12T07:02:27.110Z,95.01
2022-10-12T07:12:27.144Z,94.40
2022-10-12T07:22:27.457Z,94.40
2022-10-12T07:32:27.480Z,94.25
2022-10-12T07:42:27.807Z,93.84
2022-10-12T07:52:27.966Z,93.29
2022-10-12T08:02:28.064Z,92.48
2022-10-12T08:12:28.104Z,91.73
2022-10-12T08:22:28.336Z,91.52
2022-10-12T08:32:28.555Z,91.02
2022-10-12T08:42:28.862Z,90.93
2022-10-12T08:52:28.899Z,90.28
2022-10-12T09:02:29.235Z,89.06
2022-10-12T09:12:29.249Z,88.82
2022-10-12T09:22:29.565Z,89.17
2022-10-12T09:32:29.593Z,89.37
2022-10-12T09:42:29.915Z,89.72
2022-10-12T09:52:29.930Z,90.34
2022-10-12T10:02:30.259Z,88.82
2022-10-12T10:12:30.270Z,88.78
2022-10-12T10:22:30.612Z,86.53
2022-10-12T10:32:30.652Z,84.97
2022-10-12T10:42:30.969Z,83.01
2022-10-12T10:52:31.010Z,82.07
2022-10-12T11:02:31.327Z,78.71
2022-10-12T11:12:31.637Z,75.59
2022-10-12T11:22:31.661Z,73.88
2022-10-12T11:32:31.681Z,73.27
2022-10-12T11:42:32.009Z,74.21
2022-10-12T11:52:32.037Z,70.46
2022-10-12T12:02:32.355Z,71.83
2022-10-12T12:12:32.424Z,70.43
2022-10-12T12:22:32.505Z,70.53
2022-10-12T12:32:32.523Z,70.56
2022-10-12T12:42:32.856Z,71.26
2022-10-12T12:52:32.877Z,72.17
2022-10-12T13:02:33.208Z,69.82
2022-10-12T13:12:33.268Z,71.93
2022-10-12T13:22:33.799Z,72.53
2022-10-12T13:32:34.083Z,70.19
2022-10-12T13:42:33.797Z,69.82
2022-10-12T13:52:34.027Z,72.56
2022-10-12T14:02:34.351Z,70.53
2022-10-12T14:12:34.419Z,73.14
2022-10-12T14:22:34.501Z,73.27
2022-10-12T14:32:34.539Z,71.87
2022-10-12T14:42:34.850Z,74.15
2022-10-12T14:52:34.892Z,74.89
2022-10-12T15:02:35.144Z,76.91
2022-10-12T15:12:35.474Z,76.14
2022-10-12T15:22:35.502Z,77.04
2022-10-12T15:32:35.721Z,78.63
2022-10-12T15:42:35.954Z,79.14
2022-10-12T15:52:36.171Z,79.17
2022-10-12T16:02:36.461Z,81.48
2022-10-12T16:12:36.530Z,81.62
2022-10-12T16:22:36.751Z,82.53
2022-10-12T16:32:36.981Z,83.47
2022-10-12T16:42:37.258Z,84.33
2022-10-12T16:52:37.281Z,84.63
2022-10-12T17:02:37.605Z,84.73
2022-10-12T17:12:37.627Z,83.61
2022-10-12T17:22:37.967Z,83.21
2022-10-12T17:32:38.008Z,84.99
2022-10-12T17:42:38.533Z,84.28
2022-10-12T17:52:38.490Z,85.64
2022-10-12T18:02:39.022Z,84.69
2022-10-12T18:12:38.780Z,82.26
2022-10-12T18:22:39.132Z,83.82
2022-10-12T18:32:39.418Z,84.73
2022-10-12T18:42:39.717Z,84.83
2022-10-12T18:52:39.627Z,86.59
2022-10-12T19:02:39.857Z,86.69
2022-10-12T19:12:44.775Z,87.71
2022-10-12T19:22:41.099Z,88.01
2022-10-12T19:32:40.377Z,88.72
2022-10-12T19:42:40.253Z,88.72
2022-10-12T19:52:40.376Z,88.46
2022-10-12T20:02:40.602Z,87.74
2022-10-12T20:12:40.855Z,87.34
2022-10-12T20:22:40.790Z,87.24
2022-10-12T20:32:41.076Z,87.14
2022-10-12T20:42:41.113Z,87.18
2022-10-12T20:52:41.421Z,88.40
2022-10-12T21:02:41.446Z,88.49
2022-10-12T21:12:41.776Z,89.55
2022-10-12T21:22:41.792Z,90.06
2022-10-12T21:32:42.112Z,90.06
2022-10-12T21:42:42.140Z,90.16
2022-10-12T21:52:42.480Z,89.55
2022-10-12T22:02:42.522Z,89.72
2022-10-12T22:12:42.828Z,91.08
2022-10-12T22:22:42.850Z,91.08
2022-10-12T22:32:43.176Z,91.08
2022-10-12T22:42:43.197Z,91.22
2022-10-12T22:52:43.557Z,91.61
2022-10-12T23:02:43.584Z,92.91
2022-10-12T23:12:43.876Z,95.00
2022-10-12T23:22:43.905Z,96.51
2022-10-12T23:32:44.227Z,95.79
2022-10-12T23:42:44.249Z,95.39
2022-10-12T23:52:44.590Z,94.72
